createdAt,value
2018-12-21T00:00:57.981Z,20.53
2018-12-21T00:03:26.583Z,14.03
2018-12-21T00:05:55.234Z,15.03
2018-12-21T00:08:23.819Z,16.13
2018-12-21T00:10:52.489Z,19.40
2018-12-21T00:13:21.094Z,19.10
2018-12-21T00:15:49.694Z,14.00
2018-12-21T00:18:18.341Z,14.07
2018-12-21T00:20:47.005Z,16.27
2018-12-21T00:23:15.597Z,18.37
2018-12-21T00:25:44.385Z,18.07
2018-12-21T00:28:13.009Z,16.50
2018-12-21T00:30:40.821Z,22.57
2018-12-21T00:33:14.929Z,17.90
2018-12-21T00:35:48.857Z,16.80
2018-12-21T00:38:22.920Z,17.77
2018-12-21T00:40:57.055Z,22.03
2018-12-21T00:43:40.742Z,17.50
2018-12-21T00:46:16.529Z,17.63
2018-12-21T00:48:45.262Z,14.33
2018-12-21T00:51:13.897Z,16.77
2018-12-21T00:53:42.530Z,21.00
2018-12-21T00:56:11.199Z,16.87
2018-12-21T00:58:39.771Z,20.27
2018-12-21T01:01:08.495Z,20.77
2018-12-21T01:03:37.120Z,18.13
2018-12-21T01:06:05.882Z,17.37
2018-12-21T01:08:34.521Z,17.87
2018-12-21T01:11:03.249Z,26.03
2018-12-21T01:13:31.879Z,17.20
2018-12-21T01:16:00.494Z,14.10
2018-12-21T01:18:29.186Z,23.33
2018-12-21T01:20:57.802Z,16.93
2018-12-21T01:23:26.412Z,15.23
2018-12-21T01:25:55.010Z,16.50
2018-12-21T01:28:23.651Z,15.63
2018-12-21T01:30:52.251Z,15.97
2018-12-21T01:33:20.983Z,17.93
2018-12-21T01:35:49.575Z,17.33
2018-12-21T01:38:18.204Z,13.20
2018-12-21T01:40:46.771Z,14.00
2018-12-21T01:43:15.615Z,15.57
2018-12-21T01:45:44.174Z,14.93
2018-12-21T01:48:12.745Z,17.20
2018-12-21T01:50:41.357Z,17.37
2018-12-21T01:53:10.001Z,16.77
2018-12-21T01:55:38.617Z,11.87
2018-12-21T01:58:07.256Z,15.77
2018-12-21T02:00:36.073Z,20.30
2018-12-21T02:03:04.781Z,10.50
2018-12-21T02:05:33.419Z,19.07
2018-12-21T02:08:02.047Z,13.93
2018-12-21T02:10:30.655Z,12.70
2018-12-21T02:12:59.246Z,12.43
2018-12-21T02:15:27.969Z,15.30
2018-12-21T02:17:56.565Z,16.47
2018-12-21T02:20:25.282Z,10.40
2018-12-21T02:22:54.017Z,11.73
2018-12-21T02:25:22.628Z,14.13
2018-12-21T02:27:51.219Z,12.97
2018-12-21T02:30:19.812Z,9.73
2018-12-21T02:32:48.420Z,8.77
2018-12-21T02:35:17.001Z,13.27
2018-12-21T02:37:45.632Z,13.13
2018-12-21T02:40:14.234Z,18.63
2018-12-21T02:42:42.874Z,13.83
2018-12-21T02:45:11.506Z,7.63
2018-12-21T02:47:40.125Z,11.33
2018-12-21T02:50:08.775Z,9.30
2018-12-21T02:52:37.495Z,11.60
2018-12-21T02:55:06.241Z,9.53
2018-12-21T02:57:34.820Z,10.37
2018-12-21T03:00:04.023Z,14.87
2018-12-21T03:02:32.661Z,11.43
2018-12-21T03:05:01.237Z,12.13
2018-12-21T03:07:29.859Z,10.30
2018-12-21T03:09:58.578Z,9.67
2018-12-21T03:12:27.213Z,10.80
2018-12-21T03:14:55.865Z,16.07
2018-12-21T03:17:24.435Z,9.30
2018-12-21T03:19:53.233Z,13.90
2018-12-21T03:22:21.934Z,11.07
2018-12-21T03:24:50.508Z,7.20
2018-12-21T03:27:19.126Z,7.57
2018-12-21T03:29:47.740Z,12.40
2018-12-21T03:32:16.389Z,10.20
2018-12-21T03:34:44.971Z,7.10
2018-12-21T03:37:13.601Z,9.97
2018-12-21T03:39:42.202Z,14.67
2018-12-21T03:42:10.825Z,8.93
2018-12-21T03:44:39.396Z,10.43
2018-12-21T03:47:08.040Z,9.87
2018-12-21T03:49:36.671Z,9.30
2018-12-21T03:52:05.309Z,10.87
2018-12-21T03:54:33.941Z,15.60
2018-12-21T03:57:02.548Z,13.60
2018-12-21T03:59:31.792Z,9.87
2018-12-21T04:02:00.645Z,10.93
2018-12-21T04:04:29.256Z,8.67
2018-12-21T04:06:57.875Z,8.10
2018-12-21T04:09:26.513Z,14.00
2018-12-21T04:11:55.054Z,9.50
2018-12-21T04:14:23.637Z,8.73
2018-12-21T04:16:52.415Z,13.63
2018-12-21T04:19:21.033Z,6.27
2018-12-21T04:21:49.634Z,6.03
2018-12-21T04:24:18.255Z,12.53
2018-12-21T04:26:46.839Z,9.60
2018-12-21T04:29:15.546Z,8.80
2018-12-21T04:31:44.153Z,9.17
2018-12-21T04:34:12.727Z,5.17
2018-12-21T04:36:41.338Z,8.07
2018-12-21T04:39:09.920Z,12.03
2018-12-21T04:41:38.551Z,8.20
2018-12-21T04:44:07.158Z,7.47
2018-12-21T04:46:35.826Z,6.83
2018-12-21T04:49:04.421Z,6.03
2018-12-21T04:51:33.054Z,6.62
2018-12-21T04:54:01.679Z,11.23
2018-12-21T04:56:30.355Z,6.77
2018-12-21T04:58:58.926Z,7.13
2018-12-21T05:01:27.489Z,5.67
2018-12-21T05:03:56.101Z,7.70
2018-12-21T05:06:24.719Z,11.75
2018-12-21T05:08:53.357Z,8.20
2018-12-21T05:11:21.993Z,9.90
2018-12-21T05:13:50.598Z,10.23
2018-12-21T05:16:19.194Z,7.90
2018-12-21T05:18:47.834Z,9.50
2018-12-21T05:21:16.470Z,5.00
2018-12-21T05:23:45.043Z,9.07
2018-12-21T05:26:13.692Z,10.83
2018-12-21T05:28:42.319Z,9.17
2018-12-21T05:31:10.993Z,6.50
2018-12-21T05:33:39.566Z,12.03
2018-12-21T05:36:08.205Z,6.00
2018-12-21T05:38:36.806Z,8.77
2018-12-21T05:41:05.412Z,7.60
2018-12-21T05:43:34.023Z,7.93
2018-12-21T05:46:02.657Z,7.77
2018-12-21T05:48:31.279Z,7.53
2018-12-21T05:51:00.242Z,9.33
2018-12-21T05:53:28.857Z,8.00
2018-12-21T05:55:57.573Z,8.70
2018-12-21T05:58:26.166Z,11.90
2018-12-21T06:00:54.794Z,14.47
2018-12-21T06:03:23.403Z,10.47
2018-12-21T06:05:52.033Z,10.20
2018-12-21T06:08:20.679Z,15.40
2018-12-21T06:10:49.355Z,12.07
2018-12-21T06:13:17.950Z,10.83
2018-12-21T06:15:46.546Z,17.43
2018-12-21T06:18:15.273Z,11.67
2018-12-21T06:20:43.933Z,13.10
2018-12-21T06:23:12.573Z,13.17
2018-12-21T06:25:41.191Z,11.47
2018-12-21T06:28:09.863Z,9.93
2018-12-21T06:30:38.530Z,8.33
2018-12-21T06:33:07.117Z,10.27
2018-12-21T06:35:35.813Z,12.20
2018-12-21T06:38:04.429Z,9.00
2018-12-21T06:40:33.009Z,9.77
2018-12-21T06:43:01.595Z,10.10
2018-12-21T06:45:30.506Z,10.03
2018-12-21T06:47:59.116Z,10.70
2018-12-21T06:50:27.722Z,10.77
2018-12-21T06:52:56.359Z,9.57
2018-12-21T06:55:24.993Z,10.03
2018-12-21T06:57:53.555Z,12.13
2018-12-21T07:00:22.169Z,9.47
2018-12-21T07:02:50.839Z,9.50
2018-12-21T07:05:19.599Z,9.20
2018-12-21T07:07:48.186Z,13.00
2018-12-21T07:10:16.829Z,15.57
2018-12-21T07:12:46.912Z,14.90
2018-12-21T07:15:15.850Z,10.10
2018-12-21T07:17:44.451Z,11.13
2018-12-21T07:20:13.090Z,13.72
2018-12-21T07:22:42.197Z,11.07
2018-12-21T07:25:12.457Z,11.10
2018-12-21T07:27:41.106Z,9.90
2018-12-21T07:30:11.819Z,12.97
2018-12-21T07:32:40.479Z,8.70
2018-12-21T07:35:11.831Z,10.63
2018-12-21T07:37:40.845Z,11.17
2018-12-21T07:40:10.368Z,12.13
2018-12-21T07:42:38.967Z,9.70
2018-12-21T07:45:09.425Z,8.90
2018-12-21T07:47:38.210Z,9.37
2018-12-21T07:50:08.816Z,12.10
2018-12-21T07:52:37.570Z,8.00
2018-12-21T07:55:08.255Z,6.40
2018-12-21T07:57:36.941Z,7.60
2018-12-21T08:00:08.402Z,8.43
2018-12-21T08:02:37.013Z,5.00
2018-12-21T08:05:06.135Z,6.63
2018-12-21T08:07:34.803Z,8.00
2018-12-21T08:10:03.787Z,6.90
2018-12-21T08:12:32.387Z,6.13
2018-12-21T08:15:01.052Z,6.17
2018-12-21T08:17:29.717Z,9.03
2018-12-21T08:19:58.366Z,7.10
2018-12-21T08:22:26.985Z,6.97
2018-12-21T08:24:55.574Z,7.33
2018-12-21T08:27:24.200Z,7.10
2018-12-21T08:29:52.801Z,11.17
2018-12-21T08:32:21.419Z,9.50
2018-12-21T08:34:50.045Z,12.83
2018-12-21T08:37:18.689Z,13.00
2018-12-21T08:39:47.306Z,12.07
2018-12-21T08:42:15.921Z,13.43
2018-12-21T08:44:44.565Z,11.47
2018-12-21T08:47:13.322Z,11.97
2018-12-21T08:49:41.925Z,13.27
2018-12-21T08:52:10.537Z,13.60
2018-12-21T08:54:39.167Z,14.63
2018-12-21T08:57:07.763Z,14.10
2018-12-21T08:59:36.370Z,13.17
2018-12-21T09:02:05.036Z,13.10
2018-12-21T09:04:33.663Z,13.77
2018-12-21T09:07:02.347Z,14.40
2018-12-21T09:09:30.932Z,12.83
2018-12-21T09:11:59.585Z,13.40
2018-12-21T09:14:28.225Z,12.70
2018-12-21T09:16:56.964Z,13.40
2018-12-21T09:19:25.573Z,13.93
2018-12-21T09:21:54.156Z,12.40
2018-12-21T09:24:22.942Z,11.73
2018-12-21T09:26:51.571Z,11.80
2018-12-21T09:29:20.184Z,12.90
2018-12-21T09:31:48.786Z,11.00
2018-12-21T09:34:17.391Z,11.40
2018-12-21T09:36:46.118Z,10.33
2018-12-21T09:39:14.773Z,11.00
2018-12-21T09:41:43.350Z,10.53
2018-12-21T09:44:12.067Z,9.90
2018-12-21T09:46:40.686Z,8.87
2018-12-21T09:49:09.315Z,7.70
2018-12-21T09:51:37.973Z,7.83
2018-12-21T09:54:10.039Z,8.67
2018-12-21T09:56:37.258Z,8.97
2018-12-21T09:59:07.948Z,8.83
2018-12-21T10:01:36.567Z,9.23
2018-12-21T10:04:05.189Z,10.17
2018-12-21T10:06:33.839Z,8.87
2018-12-21T10:09:02.928Z,9.00
2018-12-21T10:11:31.574Z,9.53
2018-12-21T10:14:00.209Z,9.77
2018-12-21T10:16:28.847Z,10.33
2018-12-21T10:18:57.458Z,9.57
2018-12-21T10:21:26.211Z,9.60
2018-12-21T10:23:54.852Z,10.00
2018-12-21T10:26:23.441Z,7.97
2018-12-21T10:28:52.152Z,7.53
2018-12-21T10:31:20.743Z,7.00
2018-12-21T10:33:49.349Z,7.20
2018-12-21T10:36:17.982Z,7.43
2018-12-21T10:38:46.641Z,7.10
2018-12-21T10:41:15.530Z,6.20
2018-12-21T10:43:44.118Z,5.93
2018-12-21T10:46:12.720Z,6.10
2018-12-21T10:48:41.397Z,6.33
2018-12-21T10:51:10.193Z,7.30
2018-12-21T10:53:39.509Z,7.53
2018-12-21T10:56:08.441Z,7.20
2018-12-21T10:58:37.014Z,9.03
2018-12-21T11:01:05.794Z,7.60
2018-12-21T11:03:40.790Z,7.70
2018-12-21T11:06:09.795Z,14.47
2018-12-21T11:08:38.462Z,17.50
2018-12-21T11:11:07.100Z,18.83
2018-12-21T11:13:35.706Z,9.67
2018-12-21T11:16:04.452Z,5.93
2018-12-21T11:18:33.079Z,5.83
2018-12-21T11:21:01.671Z,6.70
2018-12-21T11:23:30.337Z,7.20
2018-12-21T11:26:00.235Z,6.60
2018-12-21T11:28:28.857Z,6.60
2018-12-21T11:30:57.495Z,7.43
2018-12-21T11:33:26.233Z,8.20
2018-12-21T11:35:54.951Z,7.13
2018-12-21T11:38:23.538Z,6.90
2018-12-21T11:40:52.125Z,7.57
2018-12-21T11:43:20.729Z,6.23
2018-12-21T11:45:49.377Z,6.30
2018-12-21T11:48:18.033Z,6.60
2018-12-21T11:50:46.758Z,6.20
2018-12-21T11:53:15.426Z,6.53
2018-12-21T11:55:44.005Z,6.63
2018-12-21T11:58:12.581Z,7.20
2018-12-21T12:00:41.219Z,8.87
2018-12-21T12:03:09.849Z,8.93
2018-12-21T12:05:38.479Z,5.97
2018-12-21T12:08:07.412Z,5.73
2018-12-21T12:10:36.190Z,5.87
2018-12-21T12:13:04.802Z,7.17
2018-12-21T12:15:33.569Z,5.40
2018-12-21T12:18:02.156Z,8.97
2018-12-21T12:20:30.767Z,6.47
2018-12-21T12:22:59.386Z,5.53
2018-12-21T12:25:28.006Z,6.77
2018-12-21T12:27:56.638Z,5.93
2018-12-21T12:30:25.246Z,5.17
2018-12-21T12:32:53.914Z,5.17
2018-12-21T12:35:22.505Z,4.30
2018-12-21T12:37:51.134Z,4.33
2018-12-21T12:40:19.731Z,4.50
2018-12-21T12:42:48.395Z,3.80
2018-12-21T12:45:17.018Z,4.10
2018-12-21T12:47:45.603Z,3.90
2018-12-21T12:50:14.272Z,4.20
2018-12-21T12:52:42.923Z,3.30
2018-12-21T12:55:11.661Z,3.80
2018-12-21T12:57:40.272Z,3.60
2018-12-21T13:00:11.471Z,3.20
2018-12-21T13:02:40.221Z,3.23
2018-12-21T13:05:09.239Z,4.27
2018-12-21T13:07:37.843Z,3.70
2018-12-21T13:10:08.666Z,3.80
2018-12-21T13:12:37.268Z,4.67
2018-12-21T13:15:08.779Z,4.17
2018-12-21T13:17:37.402Z,4.30
2018-12-21T13:20:07.885Z,4.97
2018-12-21T13:22:36.489Z,5.90
2018-12-21T13:25:11.372Z,5.40
2018-12-21T13:27:36.131Z,5.80
2018-12-21T13:30:07.180Z,7.80
2018-12-21T13:32:35.843Z,7.83
2018-12-21T13:35:04.927Z,7.30
2018-12-21T13:37:33.622Z,7.23
2018-12-21T13:40:02.328Z,6.90
2018-12-21T13:42:30.945Z,7.60
2018-12-21T13:44:59.606Z,7.17
2018-12-21T13:47:28.224Z,8.23
2018-12-21T13:49:57.267Z,7.30
2018-12-21T13:52:25.908Z,6.63
2018-12-21T13:54:54.554Z,7.90
2018-12-21T13:57:23.194Z,7.43
2018-12-21T13:59:51.820Z,8.63
2018-12-21T14:02:20.441Z,6.40
2018-12-21T14:04:49.072Z,5.73
2018-12-21T14:07:17.736Z,8.23
2018-12-21T14:09:46.344Z,8.33
2018-12-21T14:12:14.979Z,7.70
2018-12-21T14:14:43.597Z,7.60
2018-12-21T14:17:12.223Z,7.07
2018-12-21T14:19:40.793Z,7.20
2018-12-21T14:22:09.444Z,6.73
2018-12-21T14:24:38.058Z,10.70
2018-12-21T14:27:06.775Z,9.20
2018-12-21T14:29:35.366Z,9.20
2018-12-21T14:32:04.033Z,11.80
2018-12-21T14:34:32.802Z,7.37
2018-12-21T14:37:01.434Z,8.00
2018-12-21T14:39:30.064Z,7.80
2018-12-21T14:41:58.665Z,4.90
2018-12-21T14:44:27.495Z,11.53
2018-12-21T14:46:56.109Z,5.63
2018-12-21T14:49:24.732Z,7.53
2018-12-21T14:51:53.342Z,6.13
2018-12-21T14:54:22.102Z,7.27
2018-12-21T14:56:50.774Z,3.47
2018-12-21T14:59:19.383Z,3.30
2018-12-21T15:01:48.015Z,7.13
2018-12-21T15:04:16.746Z,7.83
2018-12-21T15:06:45.396Z,8.03
2018-12-21T15:09:14.010Z,5.90
2018-12-21T15:11:42.805Z,5.83
2018-12-21T15:14:11.412Z,6.63
2018-12-21T15:16:40.030Z,4.87
2018-12-21T15:19:08.655Z,6.87
2018-12-21T15:21:37.239Z,8.40
2018-12-21T15:24:05.867Z,7.47
2018-12-21T15:26:34.490Z,9.60
2018-12-21T15:29:03.132Z,8.73
2018-12-21T15:31:31.822Z,9.00
2018-12-21T15:34:00.427Z,13.23
2018-12-21T15:36:29.029Z,10.77
2018-12-21T15:38:57.660Z,12.57
2018-12-21T15:41:26.224Z,13.60
2018-12-21T15:43:54.919Z,11.60
2018-12-21T15:46:23.628Z,12.10
2018-12-21T15:48:52.386Z,12.20
2018-12-21T15:51:21.046Z,11.17
2018-12-21T15:53:49.827Z,15.00
2018-12-21T15:56:18.693Z,11.85
2018-12-21T15:58:47.320Z,14.30
2018-12-21T16:01:15.960Z,13.17
2018-12-21T16:03:44.706Z,14.50
2018-12-21T16:06:13.302Z,15.85
2018-12-21T16:08:41.946Z,14.67
2018-12-21T16:11:10.738Z,14.23
2018-12-21T16:13:39.347Z,14.53
2018-12-21T16:16:07.973Z,16.50
2018-12-21T16:18:36.893Z,18.67
2018-12-21T16:21:05.542Z,15.77
2018-12-21T16:23:34.323Z,13.63
2018-12-21T16:26:03.636Z,13.17
2018-12-21T16:28:32.641Z,27.40
2018-12-21T16:31:01.350Z,27.03
2018-12-21T16:33:30.905Z,21.73
2018-12-21T16:35:59.601Z,21.40
2018-12-21T16:38:28.436Z,19.02
2018-12-21T16:40:57.122Z,25.20
2018-12-21T16:43:25.765Z,16.30
2018-12-21T16:45:54.464Z,23.47
2018-12-21T16:48:23.109Z,23.83
2018-12-21T16:50:51.745Z,22.47
2018-12-21T16:53:20.396Z,19.87
2018-12-21T16:55:49.027Z,20.53
2018-12-21T16:58:17.723Z,25.73
2018-12-21T17:00:46.398Z,17.00
2018-12-21T17:03:15.716Z,22.13
2018-12-21T17:05:44.654Z,26.47
2018-12-21T17:08:13.287Z,21.53
2018-12-21T17:13:40.913Z,19.73
2018-12-21T17:16:09.565Z,16.93
2018-12-21T17:18:38.908Z,14.93
2018-12-21T17:21:07.692Z,22.10
2018-12-21T17:23:36.367Z,29.83
2018-12-21T17:26:05.480Z,21.33
2018-12-21T17:28:34.163Z,18.60
2018-12-21T17:31:02.986Z,20.75
2018-12-21T17:33:31.618Z,21.93
2018-12-21T17:36:00.282Z,21.90
2018-12-21T17:38:28.943Z,21.57
2018-12-21T17:40:57.569Z,30.00
2018-12-21T17:43:26.178Z,22.57
2018-12-21T17:45:54.791Z,21.60
2018-12-21T17:48:23.428Z,21.23
2018-12-21T17:50:52.217Z,27.63
2018-12-21T17:53:20.814Z,21.87
2018-12-21T17:55:49.464Z,24.63
2018-12-21T17:58:18.241Z,26.30
2018-12-21T18:00:46.879Z,27.87
2018-12-21T18:03:29.702Z,25.57
2018-12-21T18:05:58.299Z,23.40
2018-12-21T18:08:26.922Z,27.77
2018-12-21T18:10:55.587Z,29.57
2018-12-21T18:13:24.212Z,25.47
2018-12-21T18:15:52.847Z,25.47
2018-12-21T18:18:25.363Z,30.10
2018-12-21T18:20:52.151Z,23.67
2018-12-21T18:23:20.929Z,34.57
2018-12-21T18:25:49.578Z,27.80
2018-12-21T18:28:23.777Z,33.47
2018-12-21T18:30:57.299Z,31.53
2018-12-21T18:33:26.398Z,30.83
2018-12-21T18:35:54.995Z,36.53
2018-12-21T18:38:26.647Z,27.20
2018-12-21T18:40:55.272Z,33.65
2018-12-21T18:43:23.937Z,36.87
2018-12-21T18:45:52.680Z,35.92
2018-12-21T18:48:21.433Z,24.40
2018-12-21T18:50:50.074Z,30.80
2018-12-21T18:53:18.697Z,28.93
2018-12-21T18:55:49.763Z,28.73
2018-12-21T18:58:18.375Z,29.83
2018-12-21T19:00:47.036Z,28.17
2018-12-21T19:03:15.626Z,40.80
2018-12-21T19:05:44.343Z,25.40
2018-12-21T19:08:12.918Z,32.77
2018-12-21T19:10:41.555Z,28.90
2018-12-21T19:13:10.178Z,32.07
2018-12-21T19:15:38.867Z,29.37
2018-12-21T19:18:07.532Z,29.63
2018-12-21T19:20:36.194Z,26.33
2018-12-21T19:23:04.876Z,30.23
2018-12-21T19:25:33.485Z,27.30
2018-12-21T19:28:02.148Z,27.43
2018-12-21T19:30:30.795Z,29.27
2018-12-21T19:32:59.413Z,32.07
2018-12-21T19:35:29.996Z,26.10
2018-12-21T19:37:58.808Z,26.37
2018-12-21T19:40:27.425Z,28.30
2018-12-21T19:42:56.140Z,27.20
2018-12-21T19:45:24.799Z,32.00
2018-12-21T19:47:53.461Z,25.63
2018-12-21T19:50:22.123Z,26.87
2018-12-21T19:52:50.752Z,30.17
2018-12-21T19:55:31.277Z,18.70
2018-12-21T19:57:59.911Z,17.07
2018-12-21T20:00:28.581Z,30.53
2018-12-21T20:02:57.167Z,20.93
2018-12-21T20:05:25.815Z,20.27
2018-12-21T20:07:54.502Z,21.70
2018-12-21T20:10:23.190Z,20.50
2018-12-21T20:12:51.794Z,23.70
2018-12-21T20:15:20.449Z,16.43
2018-12-21T20:17:49.098Z,23.37
2018-12-21T20:20:17.712Z,25.93
2018-12-21T20:22:46.350Z,25.17
2018-12-21T20:25:14.962Z,25.17
2018-12-21T20:27:43.928Z,28.07
2018-12-21T20:30:15.644Z,24.60
2018-12-21T20:32:44.266Z,20.37
2018-12-21T20:35:13.170Z,15.67
2018-12-21T20:37:41.848Z,19.00
2018-12-21T20:40:11.862Z,23.20
2018-12-21T20:42:40.518Z,15.73
2018-12-21T20:45:10.119Z,12.00
2018-12-21T20:47:38.839Z,12.10
2018-12-21T20:50:10.967Z,14.90
2018-12-21T20:52:39.554Z,13.53
2018-12-21T20:55:08.722Z,15.67
2018-12-21T20:57:37.914Z,12.73
2018-12-21T21:00:10.488Z,14.93
2018-12-21T21:02:39.108Z,10.30
2018-12-21T21:05:07.759Z,13.47
2018-12-21T21:07:36.548Z,11.77
2018-12-21T21:10:07.282Z,13.30
2018-12-21T21:12:36.030Z,13.43
2018-12-21T21:15:05.545Z,9.73
2018-12-21T21:17:34.196Z,9.17
2018-12-21T21:20:02.980Z,7.17
2018-12-21T21:22:31.642Z,9.33
2018-12-21T21:25:00.306Z,10.40
2018-12-21T21:27:30.502Z,5.80
2018-12-21T21:29:59.614Z,7.97
2018-12-21T21:32:28.259Z,10.67
2018-12-21T21:34:57.022Z,9.07
2018-12-21T21:37:25.678Z,6.90
2018-12-21T21:39:54.326Z,7.57
2018-12-21T21:42:23.012Z,9.23
2018-12-21T21:44:51.694Z,6.90
2018-12-21T21:47:20.405Z,9.07
2018-12-21T21:49:49.087Z,5.90
2018-12-21T21:52:17.733Z,9.57
2018-12-21T21:54:46.402Z,12.47
2018-12-21T21:57:15.114Z,7.93
2018-12-21T21:59:43.733Z,5.37
2018-12-21T22:02:12.450Z,7.30
2018-12-21T22:04:41.181Z,6.60
2018-12-21T22:07:09.804Z,7.47
2018-12-21T22:09:38.451Z,8.70
2018-12-21T22:12:07.121Z,8.80
2018-12-21T22:14:35.746Z,10.03
2018-12-21T22:17:04.386Z,12.07
2018-12-21T22:19:33.039Z,10.27
2018-12-21T22:22:01.711Z,9.27
2018-12-21T22:24:30.329Z,10.57
2018-12-21T22:26:59.008Z,13.60
2018-12-21T22:29:27.649Z,10.10
2018-12-21T22:31:56.388Z,9.20
2018-12-21T22:34:25.068Z,5.23
2018-12-21T22:36:53.655Z,6.00
2018-12-21T22:39:22.256Z,6.57
2018-12-21T22:41:50.857Z,6.80
2018-12-21T22:44:19.529Z,8.80
2018-12-21T22:46:48.149Z,10.40
2018-12-21T22:49:16.825Z,8.83
2018-12-21T22:51:46.541Z,11.03
2018-12-21T22:54:15.428Z,16.47
2018-12-21T22:56:44.060Z,12.57
2018-12-21T22:59:12.821Z,8.67
2018-12-21T23:01:41.388Z,9.13
2018-12-21T23:04:10.014Z,11.03
2018-12-21T23:06:38.689Z,14.10
2018-12-21T23:09:07.337Z,12.93
2018-12-21T23:11:36.007Z,12.77
2018-12-21T23:14:04.746Z,19.53
2018-12-21T23:16:33.300Z,13.10
2018-12-21T23:19:02.063Z,16.97
2018-12-21T23:21:30.697Z,18.63
2018-12-21T23:23:59.299Z,15.77
2018-12-21T23:26:27.997Z,16.30
2018-12-21T23:28:56.630Z,20.23
2018-12-21T23:31:25.233Z,22.50
2018-12-21T23:33:53.931Z,16.50
2018-12-21T23:36:22.599Z,21.00
2018-12-21T23:38:51.186Z,19.10
2018-12-21T23:41:19.786Z,19.03
2018-12-21T23:43:48.563Z,20.27
2018-12-21T23:46:17.229Z,19.53
2018-12-21T23:48:45.841Z,26.20
2018-12-21T23:51:14.520Z,20.43
2018-12-21T23:53:43.134Z,19.93
2018-12-21T23:56:12.106Z,23.67
2018-12-21T23:58:41.061Z,19.30
